createdAt,value
2022-08-27T00:00:20.917Z,9.68
2022-08-27T00:02:49.049Z,9.55
2022-08-27T00:05:18.250Z,10.20
2022-08-27T00:07:46.158Z,10.60
2022-08-27T00:10:18.034Z,10.55
2022-08-27T00:12:44.855Z,10.10
2022-08-27T00:15:12.645Z,10.18
2022-08-27T00:17:46.908Z,10.77
2022-08-27T00:20:18.010Z,10.32
2022-08-27T00:22:44.864Z,10.13
2022-08-27T00:25:13.036Z,11.75
2022-08-27T00:27:40.285Z,10.00
2022-08-27T00:30:11.122Z,10.57
2022-08-27T00:32:38.801Z,9.87
2022-08-27T00:35:05.970Z,9.52
2022-08-27T00:37:33.495Z,11.35
2022-08-27T00:40:00.789Z,11.00
2022-08-27T00:42:27.756Z,10.95
2022-08-27T00:44:59.359Z,10.30
2022-08-27T00:47:30.686Z,10.65
2022-08-27T00:50:12.582Z,10.25
2022-08-27T00:55:18.153Z,11.35
2022-08-27T00:57:49.917Z,10.38
2022-08-27T01:00:18.392Z,9.27
2022-08-27T01:02:47.296Z,10.68
2022-08-27T01:05:18.429Z,10.77
2022-08-27T01:07:50.234Z,10.10
2022-08-27T01:10:20.145Z,9.95
2022-08-27T01:12:53.772Z,10.30
2022-08-27T01:15:23.233Z,10.55
2022-08-27T01:17:51.065Z,11.02
2022-08-27T01:20:27.352Z,10.65
2022-08-27T01:23:18.407Z,11.10
2022-08-27T01:25:45.986Z,10.70
2022-08-27T01:28:14.138Z,10.20
2022-08-27T01:30:41.650Z,10.80
2022-08-27T01:33:14.802Z,9.95
2022-08-27T01:35:43.218Z,11.48
2022-08-27T01:38:19.006Z,12.73
2022-08-27T01:40:59.066Z,12.70
2022-08-27T01:43:27.460Z,11.98
2022-08-27T01:45:54.130Z,11.45
2022-08-27T01:48:22.507Z,12.32
2022-08-27T01:50:49.735Z,10.70
2022-08-27T01:53:20.844Z,11.32
2022-08-27T01:55:49.710Z,12.32
2022-08-27T01:58:18.857Z,10.93
2022-08-27T02:00:51.964Z,12.38
2022-08-27T02:03:23.640Z,10.57
2022-08-27T02:05:50.327Z,8.93
2022-08-27T02:08:17.698Z,10.02
2022-08-27T02:10:46.888Z,11.32
2022-08-27T02:13:13.841Z,11.38
2022-08-27T02:15:41.891Z,11.15
2022-08-27T02:18:10.778Z,11.18
2022-08-27T02:20:38.152Z,10.95
2022-08-27T02:23:05.132Z,12.95
2022-08-27T02:25:31.904Z,11.75
2022-08-27T02:28:00.779Z,12.07
2022-08-27T02:30:29.563Z,11.32
2022-08-27T02:32:56.207Z,10.50
2022-08-27T02:35:24.460Z,10.85
2022-08-27T02:37:51.933Z,10.52
2022-08-27T02:40:21.110Z,13.10
2022-08-27T02:42:47.838Z,11.90
2022-08-27T02:45:15.833Z,13.05
2022-08-27T02:47:43.030Z,13.38
2022-08-27T02:50:10.587Z,13.50
2022-08-27T02:52:37.352Z,13.73
2022-08-27T02:55:06.801Z,12.55
2022-08-27T02:57:36.489Z,11.73
2022-08-27T03:00:06.747Z,12.63
2022-08-27T03:02:33.501Z,12.73
2022-08-27T03:05:00.294Z,11.75
2022-08-27T03:07:27.382Z,12.30
2022-08-27T03:09:54.013Z,12.88
2022-08-27T03:12:20.853Z,11.23
2022-08-27T03:14:49.621Z,12.32
2022-08-27T03:17:35.142Z,13.02
2022-08-27T03:20:02.320Z,16.05
2022-08-27T03:22:29.291Z,12.55
2022-08-27T03:24:56.438Z,13.27
2022-08-27T03:27:23.135Z,12.35
2022-08-27T03:29:49.863Z,11.63
2022-08-27T03:32:16.501Z,12.52
2022-08-27T03:34:43.240Z,12.05
2022-08-27T03:37:09.879Z,13.38
2022-08-27T03:39:36.566Z,13.45
2022-08-27T03:42:03.961Z,14.45
2022-08-27T03:44:31.392Z,13.18
2022-08-27T03:46:57.976Z,13.68
2022-08-27T03:49:24.644Z,11.70
2022-08-27T03:51:53.846Z,13.27
2022-08-27T03:54:20.593Z,11.60
2022-08-27T03:56:47.241Z,11.55
2022-08-27T03:59:15.772Z,11.55
2022-08-27T04:01:43.504Z,11.52
2022-08-27T04:04:10.358Z,11.65
2022-08-27T04:06:37.038Z,12.32
2022-08-27T04:09:04.471Z,13.60
2022-08-27T04:11:34.475Z,12.77
2022-08-27T04:14:04.505Z,13.02
2022-08-27T04:16:48.206Z,13.05
2022-08-27T04:19:17.386Z,12.85
2022-08-27T04:21:44.037Z,11.57
2022-08-27T04:24:11.985Z,11.80
2022-08-27T04:26:42.596Z,12.57
2022-08-27T04:29:09.204Z,16.77
2022-08-27T04:31:35.851Z,14.25
2022-08-27T04:34:02.869Z,15.52
2022-08-27T04:36:29.452Z,16.23
2022-08-27T04:38:56.107Z,13.60
2022-08-27T04:41:25.062Z,12.65
2022-08-27T04:43:59.575Z,13.95
2022-08-27T04:46:29.519Z,15.43
2022-08-27T04:49:01.407Z,15.18
2022-08-27T04:51:29.152Z,14.30
2022-08-27T04:53:57.358Z,13.32
2022-08-27T04:56:28.360Z,15.80
2022-08-27T04:58:55.677Z,13.23
2022-08-27T05:01:28.068Z,14.40
2022-08-27T05:03:55.624Z,14.07
2022-08-27T05:06:23.382Z,14.35
2022-08-27T05:08:51.772Z,14.07
2022-08-27T05:11:20.796Z,13.00
2022-08-27T05:13:48.480Z,12.93
2022-08-27T05:16:19.175Z,15.63
2022-08-27T05:18:48.567Z,14.47
2022-08-27T05:21:30.459Z,14.05
2022-08-27T05:23:59.604Z,15.43
2022-08-27T05:26:28.181Z,14.43
2022-08-27T05:28:55.471Z,13.77
2022-08-27T05:31:22.644Z,12.35
2022-08-27T05:33:50.113Z,13.00
2022-08-27T05:36:20.532Z,14.45
2022-08-27T05:38:49.371Z,14.27
2022-08-27T05:41:20.086Z,13.63
2022-08-27T05:43:50.338Z,12.70
2022-08-27T05:46:20.422Z,13.90
2022-08-27T05:48:47.623Z,12.05
2022-08-27T05:51:16.193Z,14.00
2022-08-27T05:53:55.298Z,12.82
2022-08-27T05:56:24.229Z,12.73
2022-08-27T05:59:09.612Z,12.23
2022-08-27T06:01:40.941Z,11.07
2022-08-27T06:04:09.368Z,11.38
2022-08-27T06:06:37.827Z,10.88
2022-08-27T06:09:05.306Z,11.18
2022-08-27T06:11:32.045Z,11.95
2022-08-27T06:13:58.693Z,11.75
2022-08-27T06:16:25.558Z,10.75
2022-08-27T06:18:52.289Z,10.63
2022-08-27T06:21:24.230Z,9.88
2022-08-27T06:23:51.920Z,10.32
2022-08-27T06:26:20.053Z,9.13
2022-08-27T06:28:46.959Z,9.77
2022-08-27T06:31:16.363Z,9.48
2022-08-27T06:33:44.726Z,10.70
2022-08-27T06:36:14.671Z,9.50
2022-08-27T06:38:43.215Z,9.00
2022-08-27T06:41:16.243Z,10.32
2022-08-27T06:43:43.874Z,8.85
2022-08-27T06:46:14.280Z,9.38
2022-08-27T06:48:41.449Z,8.63
2022-08-27T06:51:14.557Z,9.57
2022-08-27T06:53:43.558Z,9.63
2022-08-27T06:56:11.836Z,9.40
2022-08-27T06:58:38.521Z,8.43
2022-08-27T07:01:20.349Z,8.05
2022-08-27T07:03:47.098Z,11.32
2022-08-27T07:06:17.233Z,10.00
2022-08-27T07:08:53.251Z,8.98
2022-08-27T07:11:21.093Z,8.88
2022-08-27T07:13:49.104Z,7.70
2022-08-27T07:16:22.212Z,7.82
2022-08-27T07:18:55.560Z,9.50
2022-08-27T07:21:23.577Z,7.88
2022-08-27T07:23:53.080Z,8.25
2022-08-27T07:26:21.791Z,8.88
2022-08-27T07:28:50.132Z,8.93
2022-08-27T07:31:20.068Z,8.95
2022-08-27T07:33:51.466Z,8.27
2022-08-27T07:36:20.359Z,8.55
2022-08-27T07:38:56.594Z,8.40
2022-08-27T07:41:31.010Z,9.68
2022-08-27T07:44:18.590Z,8.02
2022-08-27T07:46:48.351Z,8.60
2022-08-27T07:49:16.494Z,8.18
2022-08-27T07:51:43.121Z,7.55
2022-08-27T07:54:09.844Z,8.88
2022-08-27T07:56:36.561Z,8.93
2022-08-27T07:59:03.259Z,8.73
2022-08-27T08:01:30.178Z,8.45
2022-08-27T08:03:57.011Z,8.50
2022-08-27T08:06:24.015Z,8.30
2022-08-27T08:08:50.675Z,8.23
2022-08-27T08:11:18.649Z,8.25
2022-08-27T08:13:46.655Z,7.57
2022-08-27T08:16:14.420Z,8.80
2022-08-27T08:18:41.101Z,8.38
2022-08-27T08:21:12.476Z,8.63
2022-08-27T08:26:06.934Z,8.73
2022-08-27T08:28:34.164Z,8.95
2022-08-27T08:31:01.554Z,7.70
2022-08-27T08:33:28.861Z,7.20
2022-08-27T08:35:55.597Z,7.30
2022-08-27T08:38:22.339Z,8.02
2022-08-27T08:40:54.563Z,8.07
2022-08-27T08:43:27.639Z,7.82
2022-08-27T08:45:56.927Z,8.68
2022-08-27T08:48:29.692Z,7.70
2022-08-27T08:50:59.114Z,7.93
2022-08-27T08:53:52.408Z,7.88
2022-08-27T08:56:31.046Z,7.50
2022-08-27T08:59:04.287Z,7.82
2022-08-27T09:01:31.010Z,8.95
2022-08-27T09:04:01.018Z,7.68
2022-08-27T09:06:41.085Z,8.07
2022-08-27T09:09:30.767Z,7.63
2022-08-27T09:12:08.833Z,7.35
2022-08-27T09:14:49.311Z,6.65
2022-08-27T09:17:17.059Z,7.25
2022-08-27T09:19:44.251Z,6.50
2022-08-27T09:22:21.326Z,7.03
2022-08-27T09:25:11.716Z,7.07
2022-08-27T09:27:42.942Z,7.75
2022-08-27T09:32:39.365Z,5.57
2022-08-27T09:35:09.675Z,6.28
2022-08-27T09:37:43.807Z,6.60
2022-08-27T09:40:29.358Z,5.80
2022-08-27T09:43:20.642Z,6.90
2022-08-27T09:45:57.616Z,6.30
2022-08-27T09:48:30.814Z,6.40
2022-08-27T09:51:01.305Z,5.97
2022-08-27T09:53:51.785Z,6.07
2022-08-27T09:56:29.539Z,6.17
2022-08-27T09:59:10.235Z,5.70
2022-08-27T10:01:51.206Z,6.00
2022-08-27T10:04:26.377Z,6.47
2022-08-27T10:06:54.807Z,5.43
2022-08-27T10:09:47.162Z,6.22
2022-08-27T10:12:29.293Z,6.50
2022-08-27T10:14:59.737Z,5.85
2022-08-27T10:17:41.558Z,5.00
2022-08-27T10:20:31.033Z,5.38
2022-08-27T10:23:41.939Z,6.05
2022-08-27T10:26:20.986Z,5.32
2022-08-27T10:28:47.877Z,4.28
2022-08-27T10:31:39.157Z,6.05
2022-08-27T10:34:14.376Z,4.88
2022-08-27T10:37:07.952Z,4.47
2022-08-27T10:39:46.637Z,5.53
2022-08-27T10:42:18.836Z,4.68
2022-08-27T10:45:09.631Z,4.97
2022-08-27T10:47:53.883Z,4.97
2022-08-27T10:50:49.056Z,5.35
2022-08-27T10:53:35.901Z,5.25
2022-08-27T10:56:28.850Z,4.63
2022-08-27T10:59:05.997Z,4.25
2022-08-27T11:01:41.790Z,4.15
2022-08-27T11:04:20.344Z,4.50
2022-08-27T11:06:56.858Z,4.25
2022-08-27T11:09:56.983Z,4.63
2022-08-27T11:12:33.841Z,3.97
2022-08-27T11:15:07.954Z,3.60
2022-08-27T11:18:02.505Z,3.33
2022-08-27T11:20:40.925Z,3.95
2022-08-27T11:23:15.787Z,4.40
2022-08-27T11:25:51.940Z,4.53
2022-08-27T11:28:30.043Z,4.53
2022-08-27T11:31:24.878Z,4.68
2022-08-27T11:34:05.563Z,4.10
2022-08-27T11:36:32.140Z,4.05
2022-08-27T11:38:58.701Z,4.00
2022-08-27T11:41:45.180Z,3.83
2022-08-27T11:44:15.074Z,4.20
2022-08-27T11:46:52.140Z,3.97
2022-08-27T11:49:35.479Z,3.95
2022-08-27T11:52:07.220Z,3.58
2022-08-27T11:54:49.511Z,4.60
2022-08-27T11:57:32.423Z,4.50
2022-08-27T12:00:10.893Z,4.18
2022-08-27T12:02:37.590Z,4.20
2022-08-27T12:05:33.193Z,4.85
2022-08-27T12:08:01.101Z,4.85
2022-08-27T12:10:45.139Z,5.20
2022-08-27T12:13:27.894Z,6.13
2022-08-27T12:15:58.668Z,4.97
2022-08-27T12:18:38.934Z,6.18
2022-08-27T12:21:17.472Z,5.10
2022-08-27T12:24:08.840Z,6.00
2022-08-27T12:26:41.631Z,6.00
2022-08-27T12:29:35.583Z,4.65
2022-08-27T12:32:41.795Z,4.45
2022-08-27T12:35:29.688Z,4.88
2022-08-27T12:38:16.177Z,4.82
2022-08-27T12:41:00.277Z,4.85
2022-08-27T12:43:29.953Z,4.30
2022-08-27T12:46:03.692Z,5.10
2022-08-27T12:48:44.348Z,5.13
2022-08-27T12:51:15.060Z,5.37
2022-08-27T12:54:01.665Z,4.90
2022-08-27T12:56:28.239Z,5.25
2022-08-27T12:59:05.144Z,5.38
2022-08-27T13:01:44.531Z,4.72
2022-08-27T13:04:25.801Z,5.75
2022-08-27T13:06:52.488Z,5.90
2022-08-27T13:09:34.264Z,5.25
2022-08-27T13:12:03.705Z,6.10
2022-08-27T13:14:39.268Z,5.00
2022-08-27T13:17:18.844Z,4.60
2022-08-27T13:19:51.363Z,5.18
2022-08-27T13:22:23.616Z,5.93
2022-08-27T13:24:52.809Z,5.00
2022-08-27T13:27:28.327Z,6.75
2022-08-27T13:29:56.128Z,5.53
2022-08-27T13:32:27.222Z,5.43
2022-08-27T13:34:54.022Z,5.93
2022-08-27T13:37:51.530Z,7.57
2022-08-27T13:41:01.207Z,7.82
2022-08-27T13:43:48.631Z,6.47
2022-08-27T13:46:17.706Z,5.97
2022-08-27T13:48:47.654Z,5.63
2022-08-27T13:51:15.864Z,5.50
2022-08-27T13:54:05.829Z,19.95
2022-08-27T13:56:36.920Z,8.23
2022-08-27T13:59:21.567Z,6.45
2022-08-27T14:02:00.478Z,5.35
2022-08-27T14:04:49.260Z,6.13
2022-08-27T14:07:20.917Z,5.18
2022-08-27T14:09:55.142Z,5.10
2022-08-27T14:12:38.168Z,5.50
2022-08-27T14:15:25.702Z,5.75
2022-08-27T14:17:52.658Z,5.47
2022-08-27T14:20:20.461Z,4.97
2022-08-27T14:22:47.729Z,4.28
2022-08-27T14:25:22.429Z,4.10
2022-08-27T14:27:54.048Z,3.97
2022-08-27T14:30:29.330Z,4.32
2022-08-27T14:32:59.140Z,3.90
2022-08-27T14:35:26.711Z,4.38
2022-08-27T14:37:54.346Z,4.57
2022-08-27T14:40:21.175Z,3.75
2022-08-27T14:42:47.833Z,4.13
2022-08-27T14:45:15.193Z,3.85
2022-08-27T14:47:44.181Z,4.82
2022-08-27T14:50:12.878Z,4.40
2022-08-27T14:52:40.747Z,4.57
2022-08-27T14:55:10.762Z,4.32
2022-08-27T14:57:37.980Z,4.40
2022-08-27T15:00:06.832Z,4.30
2022-08-27T15:02:34.408Z,5.20
2022-08-27T15:05:01.166Z,4.93
2022-08-27T15:07:37.817Z,3.92
2022-08-27T15:10:04.974Z,4.82
2022-08-27T15:12:32.074Z,4.55
2022-08-27T15:14:58.967Z,4.38
2022-08-27T15:17:34.514Z,4.20
2022-08-27T15:20:08.111Z,4.70
2022-08-27T15:22:37.844Z,4.70
2022-08-27T15:25:09.072Z,4.50
2022-08-27T15:27:39.107Z,5.20
2022-08-27T15:30:12.557Z,4.45
2022-08-27T15:32:46.899Z,5.25
2022-08-27T15:35:20.947Z,4.97
2022-08-27T15:37:47.646Z,5.45
2022-08-27T15:40:16.306Z,5.10
2022-08-27T15:42:43.108Z,4.55
2022-08-27T15:45:13.116Z,4.47
2022-08-27T15:47:39.910Z,5.97
2022-08-27T15:50:07.348Z,5.10
2022-08-27T15:52:41.047Z,4.15
2022-08-27T15:55:21.013Z,4.38
2022-08-27T15:57:48.036Z,4.35
2022-08-27T16:00:16.767Z,4.78
2022-08-27T16:02:44.831Z,4.55
2022-08-27T16:05:13.137Z,4.47
2022-08-27T16:07:40.095Z,5.35
2022-08-27T16:10:07.932Z,4.88
2022-08-27T16:12:35.993Z,5.18
2022-08-27T16:15:05.809Z,4.15
2022-08-27T16:17:33.071Z,5.25
2022-08-27T16:20:00.115Z,4.45
2022-08-27T16:22:26.863Z,5.20
2022-08-27T16:24:54.036Z,4.40
2022-08-27T16:27:20.834Z,4.65
2022-08-27T16:29:47.420Z,4.30
2022-08-27T16:32:17.334Z,4.10
2022-08-27T16:34:53.278Z,4.13
2022-08-27T16:37:26.666Z,4.38
2022-08-27T16:39:53.568Z,4.40
2022-08-27T16:42:20.649Z,4.00
2022-08-27T16:44:47.311Z,5.60
2022-08-27T16:47:14.162Z,4.68
2022-08-27T16:49:59.336Z,5.05
2022-08-27T16:52:25.996Z,4.40
2022-08-27T16:54:53.058Z,4.60
2022-08-27T16:57:19.681Z,4.53
2022-08-27T16:59:46.423Z,4.47
2022-08-27T17:02:30.201Z,5.00
2022-08-27T17:05:17.446Z,4.50
2022-08-27T17:07:48.744Z,5.57
2022-08-27T17:10:18.400Z,5.25
2022-08-27T17:12:47.246Z,5.07
2022-08-27T17:15:18.544Z,7.03
2022-08-27T17:17:46.043Z,7.88
2022-08-27T17:20:13.233Z,8.05
2022-08-27T17:22:39.948Z,8.63
2022-08-27T17:25:07.886Z,9.18
2022-08-27T17:27:34.583Z,9.32
2022-08-27T17:30:01.244Z,11.90
2022-08-27T17:32:31.591Z,10.27
2022-08-27T17:35:00.272Z,8.80
2022-08-27T17:37:30.288Z,8.90
2022-08-27T17:39:57.482Z,8.45
2022-08-27T17:42:26.141Z,8.65
2022-08-27T17:44:53.136Z,8.50
2022-08-27T17:47:20.952Z,7.40
2022-08-27T17:49:47.618Z,8.07
2022-08-27T17:52:15.340Z,7.95
2022-08-27T17:54:45.883Z,7.75
2022-08-27T17:57:24.512Z,7.03
2022-08-27T17:59:53.545Z,7.70
2022-08-27T18:02:28.287Z,9.25
2022-08-27T18:04:55.611Z,8.20
2022-08-27T18:07:22.622Z,8.30
2022-08-27T18:09:49.880Z,8.93
2022-08-27T18:12:21.699Z,7.45
2022-08-27T18:14:56.915Z,7.68
2022-08-27T18:17:23.575Z,7.60
2022-08-27T18:19:51.356Z,7.72
2022-08-27T18:22:18.203Z,7.75
2022-08-27T18:24:45.050Z,8.65
2022-08-27T18:27:11.698Z,8.05
2022-08-27T18:29:38.356Z,8.15
2022-08-27T18:32:05.161Z,8.57
2022-08-27T18:34:32.541Z,7.85
2022-08-27T18:36:59.288Z,7.75
2022-08-27T18:39:26.176Z,7.97
2022-08-27T18:41:53.277Z,8.98
2022-08-27T18:44:20.091Z,9.77
2022-08-27T18:46:46.772Z,9.68
2022-08-27T18:49:13.460Z,9.93
2022-08-27T18:51:43.036Z,10.68
2022-08-27T18:54:09.802Z,10.48
2022-08-27T18:56:36.548Z,9.98
2022-08-27T18:59:04.317Z,10.45
2022-08-27T19:01:32.007Z,10.60
2022-08-27T19:03:58.970Z,11.23
2022-08-27T19:06:25.727Z,10.73
2022-08-27T19:08:52.446Z,10.25
2022-08-27T19:11:19.415Z,11.18
2022-08-27T19:13:50.578Z,9.77
2022-08-27T19:18:47.382Z,10.20
2022-08-27T19:21:14.287Z,11.63
2022-08-27T19:23:41.600Z,10.93
2022-08-27T19:26:15.888Z,11.20
2022-08-27T19:28:45.181Z,11.93
2022-08-27T19:31:13.624Z,13.30
2022-08-27T19:33:40.664Z,11.68
2022-08-27T19:36:15.025Z,11.70
2022-08-27T19:38:43.033Z,13.75
2022-08-27T19:41:09.837Z,12.27
2022-08-27T19:43:36.580Z,13.77
2022-08-27T19:46:04.905Z,11.90
2022-08-27T19:48:34.170Z,14.13
2022-08-27T19:51:01.282Z,13.40
2022-08-27T19:53:28.036Z,14.00
2022-08-27T19:55:54.899Z,13.35
2022-08-27T19:58:21.874Z,12.48
2022-08-27T20:00:49.065Z,14.13
2022-08-27T20:03:16.416Z,14.52
2022-08-27T20:05:44.105Z,14.38
2022-08-27T20:08:12.550Z,13.15
2022-08-27T20:10:40.299Z,12.55
2022-08-27T20:13:08.014Z,13.00
2022-08-27T20:15:36.283Z,13.63
2022-08-27T20:18:05.921Z,12.35
2022-08-27T20:20:33.733Z,11.65
2022-08-27T20:23:03.736Z,11.50
2022-08-27T20:25:31.253Z,11.52
2022-08-27T20:27:58.056Z,11.55
2022-08-27T20:30:28.061Z,13.68
2022-08-27T20:32:54.855Z,12.57
2022-08-27T20:35:22.238Z,11.20
2022-08-27T20:37:48.987Z,10.75
2022-08-27T20:40:27.474Z,10.20
2022-08-27T20:42:54.220Z,11.20
2022-08-27T20:45:20.997Z,9.63
2022-08-27T20:47:49.503Z,10.73
2022-08-27T20:50:18.362Z,11.68
2022-08-27T20:52:45.634Z,12.07
2022-08-27T20:55:14.327Z,10.63
2022-08-27T20:58:05.837Z,10.13
2022-08-27T21:00:34.753Z,10.43
2022-08-27T21:03:01.756Z,10.60
2022-08-27T21:05:33.695Z,10.40
2022-08-27T21:08:00.952Z,10.45
2022-08-27T21:10:27.710Z,10.45
2022-08-27T21:12:54.341Z,10.13
2022-08-27T21:15:21.087Z,10.60
2022-08-27T21:17:47.833Z,11.10
2022-08-27T21:20:14.668Z,10.65
2022-08-27T21:22:43.253Z,10.18
2022-08-27T21:25:12.420Z,10.50
2022-08-27T21:27:39.748Z,10.18
2022-08-27T21:30:08.654Z,11.10
2022-08-27T21:32:35.352Z,9.70
2022-08-27T21:35:01.977Z,9.32
2022-08-27T21:37:28.662Z,9.27
2022-08-27T21:39:55.380Z,9.00
2022-08-27T21:42:22.069Z,10.02
2022-08-27T21:44:49.453Z,9.05
2022-08-27T21:47:16.220Z,9.93
2022-08-27T21:49:42.928Z,10.35
2022-08-27T21:52:09.985Z,10.73
2022-08-27T21:54:39.690Z,10.73
2022-08-27T21:57:06.737Z,9.93
2022-08-27T21:59:40.143Z,10.48
2022-08-27T22:02:28.813Z,9.15
2022-08-27T22:04:54.318Z,8.75
2022-08-27T22:07:20.987Z,8.13
2022-08-27T22:09:48.859Z,8.60
2022-08-27T22:12:15.788Z,8.60
2022-08-27T22:14:42.413Z,7.75
2022-08-27T22:17:09.033Z,8.23
2022-08-27T22:19:35.772Z,9.23
2022-08-27T22:22:02.477Z,7.57
2022-08-27T22:24:29.151Z,8.25
2022-08-27T22:26:55.840Z,8.65
2022-08-27T22:29:24.526Z,9.52
2022-08-27T22:31:51.509Z,9.88
2022-08-27T22:34:18.214Z,10.32
2022-08-27T22:36:44.901Z,10.70
2022-08-27T22:39:11.561Z,9.77
2022-08-27T22:41:38.377Z,8.35
2022-08-27T22:44:08.537Z,10.73
2022-08-27T22:46:35.658Z,8.90
2022-08-27T22:49:02.330Z,8.63
2022-08-27T22:51:28.948Z,8.25
2022-08-27T22:53:55.596Z,8.10
2022-08-27T22:56:22.395Z,7.60
2022-08-27T22:58:49.033Z,7.72
2022-08-27T23:01:20.481Z,7.38
2022-08-27T23:03:47.929Z,7.85
2022-08-27T23:06:14.832Z,8.80
2022-08-27T23:08:41.537Z,8.80
2022-08-27T23:11:08.247Z,8.82
2022-08-27T23:13:35.111Z,8.10
2022-08-27T23:16:03.179Z,6.93
2022-08-27T23:18:30.463Z,7.13
2022-08-27T23:20:57.148Z,7.93
2022-08-27T23:23:26.770Z,7.82
2022-08-27T23:26:16.136Z,7.47
2022-08-27T23:28:43.588Z,7.70
2022-08-27T23:31:10.754Z,7.72
2022-08-27T23:33:38.448Z,7.35
2022-08-27T23:36:06.347Z,7.63
2022-08-27T23:38:33.874Z,7.93
2022-08-27T23:41:00.679Z,8.63
2022-08-27T23:43:28.345Z,8.43
2022-08-27T23:45:55.011Z,9.32
2022-08-27T23:48:21.644Z,7.45
2022-08-27T23:50:48.410Z,9.15
2022-08-27T23:53:15.333Z,7.93
2022-08-27T23:55:42.061Z,8.60
2022-08-27T23:58:09.500Z,8.55
